Time;durP1;ratioP1;P1;durP2;ratioP2;P2;SDS_P1;SDS_P2;PMS_P1;PMS_P2;Temp;Humidity;BMP_temperature;BMP_pressure;BME280_temperature;BME280_humidity;BME280_pressure;Samples;Min_cycle;Max_cycle;Signal;HPM_P1;HPM_P2
2024/04/03 00:00:38;;;;;;;3.85;2.05;;;11.50;90.70;;;;;;5028896;28;20033;-66
2024/04/03 00:03:04;;;;;;;3.88;1.65;;;11.50;90.80;;;;;;5023891;28;20079;-66
2024/04/03 00:05:29;;;;;;;4.93;1.95;;;11.50;90.80;;;;;;5028304;28;20108;-65
2024/04/03 00:07:55;;;;;;;4.57;2.40;;;11.50;90.80;;;;;;5016615;28;20096;-66
2024/04/03 00:10:20;;;;;;;4.18;2.33;;;11.50;90.90;;;;;;5024976;28;20060;-65
2024/04/03 00:12:46;;;;;;;3.85;1.75;;;11.50;91.00;;;;;;5030151;28;20037;-66
2024/04/03 00:15:12;;;;;;;4.97;2.28;;;11.50;91.10;;;;;;5021574;28;20440;-65
2024/04/03 00:17:38;;;;;;;4.50;2.15;;;11.50;91.00;;;;;;5026938;28;20160;-66
2024/04/03 00:20:04;;;;;;;4.20;2.28;;;11.50;91.10;;;;;;5023646;28;20109;-65
2024/04/03 00:22:30;;;;;;;4.25;2.10;;;11.50;91.30;;;;;;5024760;28;20531;-65
2024/04/03 00:24:55;;;;;;;2.42;1.58;;;11.50;91.30;;;;;;5030225;28;20025;-65
2024/04/03 00:27:21;;;;;;;4.05;1.88;;;11.60;91.30;;;;;;5022932;28;20021;-65
2024/04/03 00:29:47;;;;;;;2.72;1.55;;;11.60;91.30;;;;;;5029176;28;20441;-65
2024/04/03 00:32:12;;;;;;;4.40;2.30;;;11.60;91.30;;;;;;5023726;28;20629;-65
2024/04/03 00:34:39;;;;;;;4.18;1.83;;;11.60;91.30;;;;;;5032812;28;20041;-65
2024/04/03 00:37:05;;;;;;;2.28;1.48;;;11.60;91.40;;;;;;5023535;28;20029;-65
2024/04/03 00:39:31;;;;;;;2.65;1.98;;;11.60;91.40;;;;;;5022577;28;20026;-66
2024/04/03 00:41:56;;;;;;;3.63;2.30;;;11.60;91.50;;;;;;5025899;28;20029;-66
2024/04/03 00:44:22;;;;;;;2.65;2.17;;;11.60;91.60;;;;;;5028884;28;20100;-64
2024/04/03 00:46:48;;;;;;;2.90;1.90;;;11.60;91.60;;;;;;5023518;28;20021;-66
2024/04/03 00:49:14;;;;;;;2.88;2.00;;;11.60;91.60;;;;;;5027162;28;20039;-65
2024/04/03 00:51:41;;;;;;;4.82;2.75;;;11.60;91.70;;;;;;5030200;28;20034;-65
2024/04/03 00:54:07;;;;;;;3.95;2.55;;;11.60;91.70;;;;;;5027875;28;20028;-65
2024/04/03 00:56:33;;;;;;;2.92;1.98;;;11.60;91.80;;;;;;5031085;28;20365;-68
2024/04/03 00:58:59;;;;;;;3.13;2.28;;;11.60;91.80;;;;;;5023629;28;20415;-65
2024/04/03 01:01:24;;;;;;;3.10;2.00;;;11.60;91.90;;;;;;5026091;28;20083;-65
2024/04/03 01:03:50;;;;;;;2.45;1.85;;;11.60;91.90;;;;;;5035794;28;20025;-66
2024/04/03 01:06:15;;;;;;;2.63;1.58;;;11.60;92.00;;;;;;5024739;28;20032;-65
2024/04/03 01:08:41;;;;;;;2.08;1.50;;;11.60;91.90;;;;;;5027879;28;20034;-65
2024/04/03 01:11:06;;;;;;;2.15;1.80;;;11.60;91.90;;;;;;5017741;28;20672;-66
2024/04/03 01:13:32;;;;;;;3.97;2.40;;;11.70;91.90;;;;;;5017015;28;20030;-65
2024/04/03 01:16:04;;;;;;;5.78;3.03;;;11.70;91.90;;;;;;5032473;28;20033;-64
2024/04/03 01:18:30;;;;;;;4.78;2.45;;;11.70;92.00;;;;;;5034062;28;20497;-65
2024/04/03 01:20:56;;;;;;;5.30;3.10;;;11.60;92.00;;;;;;5029972;28;20021;-65
2024/04/03 01:23:22;;;;;;;4.88;2.90;;;11.60;92.10;;;;;;5020588;28;20037;-65
2024/04/03 01:25:48;;;;;;;4.63;3.50;;;11.60;92.20;;;;;;5023866;28;20025;-66
2024/04/03 01:28:15;;;;;;;5.07;3.20;;;11.60;92.40;;;;;;5040620;28;20377;-66
2024/04/03 01:30:40;;;;;;;4.03;2.33;;;11.60;92.50;;;;;;5025375;28;20030;-65
2024/04/03 01:33:06;;;;;;;1.95;1.58;;;11.60;92.50;;;;;;5033697;28;20060;-65
2024/04/03 01:35:32;;;;;;;2.58;2.10;;;11.60;92.70;;;;;;5029640;28;20120;-65
2024/04/03 01:37:58;;;;;;;4.38;2.55;;;11.60;92.50;;;;;;5033610;28;20033;-65
2024/04/03 01:40:23;;;;;;;4.40;2.40;;;11.60;92.60;;;;;;5016659;28;20416;-66
2024/04/03 01:42:49;;;;;;;2.20;2.00;;;11.60;93.00;;;;;;5029687;28;20367;-66
2024/04/03 01:45:15;;;;;;;3.17;2.20;;;11.60;92.70;;;;;;5023177;28;20017;-66
2024/04/03 01:47:47;;;;;;;3.08;2.30;;;11.60;92.90;;;;;;5026958;28;20030;-65
2024/04/03 01:50:18;;;;;;;3.55;2.33;;;11.60;92.90;;;;;;5027956;28;20083;-67
2024/04/03 01:52:44;;;;;;;2.63;1.80;;;11.60;92.90;;;;;;5036322;28;20100;-65
2024/04/03 01:55:09;;;;;;;2.45;1.70;;;11.50;93.00;;;;;;5026660;28;20128;-65
2024/04/03 01:57:35;;;;;;;3.10;1.98;;;11.50;93.00;;;;;;5019481;28;20081;-65
2024/04/03 02:00:01;;;;;;;3.88;2.05;;;11.60;93.00;;;;;;5026200;28;20021;-64
2024/04/03 02:02:26;;;;;;;3.65;2.10;;;11.50;93.00;;;;;;5032950;28;20039;-64
2024/04/03 02:04:52;;;;;;;2.22;1.80;;;11.50;93.20;;;;;;5028334;28;20024;-65
2024/04/03 02:07:17;;;;;;;3.22;2.45;;;11.50;93.20;;;;;;5028772;28;20017;-66
2024/04/03 02:09:44;;;;;;;3.40;2.42;;;11.50;93.40;;;;;;5030411;28;20518;-67
2024/04/03 02:12:10;;;;;;;3.03;1.85;;;11.40;93.60;;;;;;5027803;28;20083;-66
2024/04/03 02:14:35;;;;;;;2.38;2.03;;;11.50;93.60;;;;;;5022007;28;20025;-65
2024/04/03 02:17:01;;;;;;;2.90;2.10;;;11.50;93.60;;;;;;5029923;28;20071;-65
2024/04/03 02:19:27;;;;;;;2.03;1.75;;;11.40;93.70;;;;;;5026255;28;20033;-65
2024/04/03 02:21:52;;;;;;;2.67;1.90;;;11.40;93.80;;;;;;5031003;28;20387;-65
2024/04/03 02:24:18;;;;;;;1.60;1.45;;;11.40;93.90;;;;;;5039926;28;20026;-65
2024/04/03 02:26:43;;;;;;;1.83;1.48;;;11.40;93.90;;;;;;5024054;28;20068;-65
2024/04/03 02:29:13;;;;;;;1.23;1.13;;;11.40;93.90;;;;;;5029215;28;20032;-64
2024/04/03 02:31:38;;;;;;;1.65;1.23;;;11.50;93.90;;;;;;5028931;28;20021;-66
2024/04/03 02:34:04;;;;;;;1.98;1.40;;;11.50;93.80;;;;;;5039039;28;20120;-65
2024/04/03 02:36:30;;;;;;;2.33;1.50;;;11.60;93.80;;;;;;5033828;28;20025;-65
2024/04/03 02:38:55;;;;;;;3.28;1.90;;;11.60;93.90;;;;;;5044948;28;20034;-65
2024/04/03 02:41:21;;;;;;;1.95;1.50;;;11.50;94.00;;;;;;5032609;28;20026;-65
2024/04/03 02:43:46;;;;;;;4.10;1.90;;;11.40;94.10;;;;;;5025413;28;20030;-64
2024/04/03 02:46:12;;;;;;;2.30;1.38;;;11.50;94.20;;;;;;5023999;28;20108;-66
2024/04/03 02:48:37;;;;;;;2.20;1.60;;;11.50;94.20;;;;;;5026682;28;20076;-65
2024/04/03 02:51:10;;;;;;;2.40;1.65;;;11.50;94.20;;;;;;5035548;28;20030;-67
2024/04/03 02:53:36;;;;;;;2.70;1.40;;;11.50;94.30;;;;;;5023706;28;20038;-66
2024/04/03 02:56:06;;;;;;;2.97;1.30;;;11.40;94.30;;;;;;5027929;28;20056;-66
2024/04/03 02:58:35;;;;;;;3.03;1.15;;;11.50;94.40;;;;;;5022984;28;20022;-66
2024/04/03 03:01:07;;;;;;;1.92;1.02;;;11.50;94.20;;;;;;5020587;28;20021;-65
2024/04/03 03:03:32;;;;;;;2.13;1.10;;;11.60;94.20;;;;;;5021932;28;20038;-66
2024/04/03 03:05:59;;;;;;;1.83;1.10;;;11.60;94.10;;;;;;5021812;28;20489;-65
2024/04/03 03:08:29;;;;;;;1.73;1.17;;;11.60;94.10;;;;;;5026293;28;20035;-64
2024/04/03 03:10:55;;;;;;;1.42;1.10;;;11.70;94.10;;;;;;5024565;28;20488;-65
2024/04/03 03:13:21;;;;;;;2.15;1.30;;;11.60;94.10;;;;;;5028045;28;20036;-65
2024/04/03 03:15:53;;;;;;;1.70;1.00;;;11.60;94.10;;;;;;5024584;28;20068;-66
2024/04/03 03:18:19;;;;;;;1.50;0.80;;;11.60;94.00;;;;;;5019719;28;20032;-64
2024/04/03 03:20:49;;;;;;;1.00;0.88;;;11.70;94.00;;;;;;5028988;28;20032;-65
2024/04/03 03:23:15;;;;;;;1.88;0.88;;;11.60;94.00;;;;;;5023634;28;20032;-66
2024/04/03 03:25:42;;;;;;;1.45;1.17;;;11.70;94.00;;;;;;5028331;28;20045;-65
2024/04/03 03:28:08;;;;;;;1.20;1.10;;;11.60;94.00;;;;;;5026886;28;20112;-65
2024/04/03 03:30:33;;;;;;;1.10;1.00;;;11.70;94.00;;;;;;5035930;28;20108;-66
2024/04/03 03:32:59;;;;;;;2.50;1.30;;;11.70;93.90;;;;;;5028645;28;20106;-65
2024/04/03 03:35:24;;;;;;;1.73;1.20;;;11.70;94.00;;;;;;5022985;28;20496;-63
2024/04/03 03:37:50;;;;;;;1.60;1.23;;;11.70;94.00;;;;;;5024361;28;20492;-63
2024/04/03 03:40:18;;;;;;;2.60;1.60;;;11.70;94.00;;;;;;5029975;28;20429;-65
2024/04/03 03:42:43;;;;;;;2.08;1.42;;;11.60;94.00;;;;;;5030234;28;20061;-66
2024/04/03 03:45:09;;;;;;;1.92;1.10;;;11.60;94.00;;;;;;5027883;28;20057;-65
2024/04/03 03:47:34;;;;;;;2.00;1.13;;;11.60;93.90;;;;;;5019355;28;20022;-66
2024/04/03 03:52:45;;;;;;;4.25;2.00;;;11.70;93.90;;;;;;5024767;28;20141;-61
2024/04/03 03:55:10;;;;;;;1.98;1.40;;;11.60;94.00;;;;;;5022453;28;20116;-63
2024/04/03 03:57:36;;;;;;;2.30;1.30;;;11.60;94.20;;;;;;5024501;28;20030;-65
2024/04/03 04:00:03;;;;;;;2.05;1.30;;;11.60;94.10;;;;;;5025663;28;20030;-65
2024/04/03 04:02:28;;;;;;;2.80;1.58;;;11.60;94.20;;;;;;5034873;28;20033;-66
2024/04/03 04:04:54;;;;;;;2.13;1.20;;;11.60;94.10;;;;;;5030165;28;20472;-66
2024/04/03 04:07:21;;;;;;;1.92;1.10;;;11.60;94.10;;;;;;5031026;28;20093;-66
2024/04/03 04:09:50;;;;;;;2.78;1.48;;;11.60;94.10;;;;;;5033991;28;20064;-66
2024/04/03 04:12:18;;;;;;;2.28;1.30;;;11.60;94.10;;;;;;5017054;28;20052;-66
2024/04/03 04:14:51;;;;;;;1.75;1.10;;;11.60;94.10;;;;;;5028957;28;20029;-66
2024/04/03 04:17:17;;;;;;;1.40;1.20;;;11.60;94.10;;;;;;5029772;28;20024;-66
2024/04/03 04:19:43;;;;;;;1.10;0.70;;;11.60;94.10;;;;;;5035554;28;20052;-67
2024/04/03 04:22:09;;;;;;;2.80;1.20;;;11.60;94.10;;;;;;5027169;28;20040;-67
2024/04/03 04:24:36;;;;;;;2.63;1.10;;;11.60;94.20;;;;;;5032241;28;20025;-66
2024/04/03 04:27:04;;;;;;;1.80;1.00;;;11.60;94.20;;;;;;5030572;28;20013;-66
2024/04/03 04:29:31;;;;;;;1.63;1.02;;;11.50;94.20;;;;;;5024419;28;20071;-64
2024/04/03 04:31:58;;;;;;;1.85;0.98;;;11.60;94.30;;;;;;5015510;28;20041;-63
2024/04/03 04:34:25;;;;;;;1.10;0.90;;;11.60;94.30;;;;;;5017845;28;20468;-66
2024/04/03 04:36:50;;;;;;;0.75;0.75;;;11.60;94.30;;;;;;5024683;28;20031;-64
2024/04/03 04:39:16;;;;;;;1.40;0.80;;;11.60;94.30;;;;;;5028319;28;20142;-65
2024/04/03 04:41:41;;;;;;;1.42;1.08;;;11.60;94.20;;;;;;5030460;28;20057;-66
2024/04/03 04:44:07;;;;;;;1.40;1.00;;;11.60;94.20;;;;;;5034591;28;20052;-66
2024/04/03 04:46:33;;;;;;;1.30;1.20;;;11.50;94.30;;;;;;5014955;28;20033;-66
2024/04/03 04:48:58;;;;;;;1.60;1.02;;;11.50;94.40;;;;;;5019022;28;20018;-64
2024/04/03 04:51:25;;;;;;;1.75;1.02;;;11.50;94.40;;;;;;5030264;28;20026;-66
2024/04/03 04:53:51;;;;;;;1.45;1.05;;;11.40;94.50;;;;;;5023256;28;20185;-65
2024/04/03 04:56:16;;;;;;;1.40;0.90;;;11.40;94.50;;;;;;5023654;28;20409;-67
2024/04/03 04:58:42;;;;;;;1.63;1.10;;;11.40;94.60;;;;;;5028216;28;20396;-65
2024/04/03 05:01:09;;;;;;;1.05;0.90;;;11.40;94.60;;;;;;5024310;28;21401;-66
2024/04/03 05:03:36;;;;;;;1.55;1.00;;;11.40;94.60;;;;;;5017533;28;20025;-66
2024/04/03 05:06:02;;;;;;;1.50;1.08;;;11.50;94.60;;;;;;5023243;28;20029;-66
2024/04/03 05:08:29;;;;;;;1.85;1.05;;;11.50;94.60;;;;;;5020635;28;20121;-63
2024/04/03 05:10:57;;;;;;;1.40;0.90;;;11.50;94.50;;;;;;5028394;28;20030;-65
2024/04/03 05:13:30;;;;;;;1.08;0.80;;;11.50;94.40;;;;;;5021715;28;20021;-66
2024/04/03 05:15:56;;;;;;;1.88;1.15;;;11.50;94.40;;;;;;5026820;28;20136;-66
2024/04/03 05:18:21;;;;;;;2.17;1.17;;;11.50;94.40;;;;;;5024177;28;20036;-66
2024/04/03 05:20:47;;;;;;;2.28;1.30;;;11.50;94.40;;;;;;5023274;28;20034;-64
2024/04/03 05:23:13;;;;;;;3.25;1.30;;;11.50;94.30;;;;;;5027602;28;20025;-65
2024/04/03 05:25:39;;;;;;;1.63;1.00;;;11.50;94.30;;;;;;5028481;28;20038;-66
2024/04/03 05:28:04;;;;;;;1.10;0.90;;;11.50;94.30;;;;;;5026736;28;20478;-67
2024/04/03 05:30:34;;;;;;;1.60;0.90;;;11.40;94.40;;;;;;5028636;28;20036;-66
2024/04/03 05:32:59;;;;;;;1.27;0.90;;;11.50;94.50;;;;;;5032022;28;20018;-63
2024/04/03 05:35:25;;;;;;;2.72;1.33;;;11.50;94.50;;;;;;5036922;28;20036;-67
2024/04/03 05:37:51;;;;;;;1.90;1.20;;;11.50;94.40;;;;;;5030648;28;20025;-66
2024/04/03 05:40:16;;;;;;;1.00;0.90;;;11.50;94.40;;;;;;5030378;28;20075;-66
2024/04/03 05:42:42;;;;;;;1.35;0.90;;;11.60;94.40;;;;;;5034022;28;20029;-67
2024/04/03 05:45:08;;;;;;;1.95;0.90;;;11.50;94.30;;;;;;5028376;28;20021;-65
2024/04/03 05:47:35;;;;;;;1.23;1.10;;;11.50;94.40;;;;;;5027406;28;20033;-66
2024/04/03 05:50:07;;;;;;;1.90;1.00;;;11.40;94.60;;;;;;5026111;28;20021;-64
2024/04/03 05:52:33;;;;;;;2.25;1.10;;;11.40;94.70;;;;;;5027475;28;20104;-65
2024/04/03 05:54:59;;;;;;;2.65;1.40;;;11.40;94.70;;;;;;5026316;28;20136;-65
2024/04/03 05:57:25;;;;;;;1.92;1.27;;;11.30;94.80;;;;;;5029787;28;20033;-66
2024/04/03 05:59:51;;;;;;;1.58;1.10;;;11.30;94.90;;;;;;5029038;28;20036;-64
2024/04/03 06:02:16;;;;;;;2.47;1.48;;;11.30;95.00;;;;;;5029185;28;20038;-66
2024/04/03 06:04:42;;;;;;;2.03;1.50;;;11.30;95.00;;;;;;5025043;28;20033;-66
2024/04/03 06:07:07;;;;;;;1.60;1.20;;;11.30;95.00;;;;;;5024268;28;20029;-66
2024/04/03 06:09:33;;;;;;;1.60;1.10;;;11.40;94.90;;;;;;5034665;28;20369;-67
2024/04/03 06:11:58;;;;;;;2.45;1.25;;;11.40;95.10;;;;;;5028298;28;20421;-65
2024/04/03 06:14:24;;;;;;;2.88;1.85;;;11.40;94.90;;;;;;5027237;28;20112;-65
2024/04/03 06:16:49;;;;;;;1.25;1.10;;;11.40;94.90;;;;;;5031936;28;20480;-66
2024/04/03 06:19:16;;;;;;;1.70;1.20;;;11.40;94.90;;;;;;5031706;28;20076;-66
2024/04/03 06:21:42;;;;;;;3.17;1.60;;;11.40;94.90;;;;;;5035115;28;20402;-66
2024/04/03 06:24:08;;;;;;;2.20;1.13;;;11.50;94.90;;;;;;5033219;28;20025;-66
2024/04/03 06:26:34;;;;;;;3.42;1.20;;;11.40;94.90;;;;;;5024887;28;20036;-66
2024/04/03 06:29:00;;;;;;;3.60;1.67;;;11.50;94.90;;;;;;5028419;28;20752;-67
2024/04/03 06:31:29;;;;;;;2.28;1.52;;;11.60;94.80;;;;;;5032185;28;20028;-66
2024/04/03 06:33:59;;;;;;;2.67;1.50;;;11.50;94.80;;;;;;5030214;28;20545;-66
2024/04/03 06:36:26;;;;;;;2.85;1.40;;;11.60;94.80;;;;;;5029461;28;20144;-65
2024/04/03 06:38:52;;;;;;;3.25;1.40;;;11.60;94.70;;;;;;5028450;28;20116;-64
2024/04/03 06:41:17;;;;;;;2.35;1.35;;;11.70;94.80;;;;;;5030153;28;20113;-66
2024/04/03 06:43:43;;;;;;;2.60;1.33;;;11.70;94.80;;;;;;5043935;28;20032;-66
2024/04/03 06:46:09;;;;;;;2.08;1.23;;;11.60;94.80;;;;;;5046210;28;20455;-65
2024/04/03 06:48:35;;;;;;;2.38;1.50;;;11.60;94.80;;;;;;5039176;28;20033;-66
2024/04/03 06:51:00;;;;;;;1.58;1.23;;;11.70;94.80;;;;;;5038306;28;20096;-66
2024/04/03 06:53:26;;;;;;;2.83;1.75;;;11.70;94.80;;;;;;5042969;28;20467;-66
2024/04/03 06:55:59;;;;;;;3.53;1.60;;;11.80;94.70;;;;;;5037527;28;20030;-65
2024/04/03 06:58:27;;;;;;;1.75;1.13;;;11.70;94.70;;;;;;5043239;28;20029;-65
2024/04/03 07:00:52;;;;;;;3.80;1.73;;;11.80;94.70;;;;;;5031707;28;20098;-63
2024/04/03 07:03:18;;;;;;;2.42;1.30;;;11.80;94.70;;;;;;5036885;28;20053;-66
2024/04/03 07:05:44;;;;;;;3.05;1.20;;;11.80;94.70;;;;;;5036126;28;20040;-65
2024/04/03 07:08:13;;;;;;;4.30;1.60;;;11.90;94.60;;;;;;5040577;28;20033;-65
2024/04/03 07:10:40;;;;;;;1.55;1.25;;;11.90;94.60;;;;;;5036121;28;20021;-66
2024/04/03 07:13:15;;;;;;;2.47;1.10;;;11.90;94.60;;;;;;5031975;28;20028;-65
2024/04/03 07:15:47;;;;;;;3.78;1.77;;;11.90;94.60;;;;;;5037491;28;20102;-65
2024/04/03 07:18:12;;;;;;;2.90;1.65;;;11.90;94.70;;;;;;5043352;28;20017;-65
2024/04/03 07:20:38;;;;;;;2.47;1.27;;;11.80;94.80;;;;;;5035096;28;20596;-66
2024/04/03 07:23:04;;;;;;;2.20;1.48;;;11.80;94.80;;;;;;5038644;28;20100;-65
2024/04/03 07:25:30;;;;;;;2.55;1.40;;;11.90;94.80;;;;;;5035622;28;20064;-65
2024/04/03 07:27:57;;;;;;;2.40;1.38;;;11.90;94.70;;;;;;5042657;28;20037;-65
2024/04/03 07:30:23;;;;;;;3.10;1.63;;;11.90;94.70;;;;;;5039324;28;20047;-65
2024/04/03 07:32:48;;;;;;;2.70;1.40;;;11.90;94.70;;;;;;5037484;28;20112;-66
2024/04/03 07:35:15;;;;;;;1.80;1.10;;;12.00;94.80;;;;;;5034208;28;20094;-65
2024/04/03 07:37:42;;;;;;;2.03;1.20;;;12.00;94.60;;;;;;5046602;28;20021;-66
2024/04/03 07:40:09;;;;;;;1.52;1.00;;;12.10;94.60;;;;;;5040038;28;20488;-65
2024/04/03 07:42:38;;;;;;;1.50;1.15;;;12.10;94.50;;;;;;5039002;28;20041;-64
2024/04/03 07:45:04;;;;;;;1.95;1.08;;;12.10;94.60;;;;;;5044610;28;20429;-65
2024/04/03 07:47:32;;;;;;;2.20;1.40;;;12.00;94.60;;;;;;5040267;28;20017;-64
2024/04/03 07:50:07;;;;;;;3.00;1.30;;;12.00;94.60;;;;;;5036151;28;20028;-65
2024/04/03 07:52:37;;;;;;;0.93;0.82;;;12.10;94.70;;;;;;5039335;28;20029;-65
2024/04/03 07:55:07;;;;;;;3.92;1.30;;;12.10;94.60;;;;;;5031056;28;20083;-65
2024/04/03 07:57:34;;;;;;;1.60;1.00;;;12.10;94.70;;;;;;5043176;28;20491;-65
2024/04/03 08:00:01;;;;;;;1.58;0.93;;;12.10;94.60;;;;;;5033488;28;20471;-65
2024/04/03 08:02:26;;;;;;;1.58;1.10;;;12.00;94.60;;;;;;5036183;28;20079;-65
2024/04/03 08:04:53;;;;;;;3.70;1.55;;;12.10;94.70;;;;;;5031613;28;20021;-67
2024/04/03 08:07:19;;;;;;;3.30;1.38;;;12.10;94.70;;;;;;5036189;28;20041;-65
2024/04/03 08:09:44;;;;;;;3.28;1.50;;;12.10;94.70;;;;;;5034850;28;20515;-66
2024/04/03 08:12:10;;;;;;;3.47;1.40;;;12.10;94.70;;;;;;5034587;28;20480;-66
2024/04/03 08:14:35;;;;;;;3.05;1.30;;;12.00;94.70;;;;;;5032034;28;20021;-65
2024/04/03 08:17:01;;;;;;;3.97;1.50;;;12.00;94.70;;;;;;5034155;28;20028;-64
2024/04/03 08:19:26;;;;;;;3.30;1.45;;;12.00;94.80;;;;;;5036073;28;20662;-63
2024/04/03 08:21:52;;;;;;;2.15;1.25;;;11.90;94.90;;;;;;5033194;28;20056;-65
2024/04/03 08:24:17;;;;;;;2.40;1.40;;;11.90;94.90;;;;;;5036458;28;20021;-65
2024/04/03 08:26:43;;;;;;;1.75;0.90;;;11.90;95.00;;;;;;5047415;28;20231;-66
2024/04/03 08:29:09;;;;;;;2.80;1.30;;;12.00;95.10;;;;;;5045644;28;20067;-65
2024/04/03 08:31:35;;;;;;;1.77;1.17;;;12.00;95.00;;;;;;5033789;28;20025;-64
2024/04/03 08:34:01;;;;;;;2.45;1.30;;;12.00;95.00;;;;;;5038110;28;20443;-64
2024/04/03 08:36:26;;;;;;;1.55;1.10;;;12.00;95.00;;;;;;5042824;28;20028;-64
2024/04/03 08:38:53;;;;;;;1.80;1.30;;;12.00;95.00;;;;;;5038879;28;20112;-65
2024/04/03 08:41:19;;;;;;;2.58;1.60;;;12.00;95.10;;;;;;5026525;28;20635;-64
2024/04/03 08:43:48;;;;;;;2.40;1.60;;;12.00;95.10;;;;;;5038476;28;20029;-64
2024/04/03 08:46:14;;;;;;;2.15;1.30;;;12.00;95.10;;;;;;5037323;28;20005;-65
2024/04/03 08:48:40;;;;;;;1.35;1.10;;;12.00;95.10;;;;;;5033519;28;20101;-65
2024/04/03 08:51:06;;;;;;;2.00;1.30;;;12.00;95.10;;;;;;5041589;28;20018;-65
2024/04/03 08:53:32;;;;;;;2.63;1.42;;;12.00;95.10;;;;;;5041395;28;20127;-65
2024/04/03 08:55:58;;;;;;;3.67;1.60;;;12.00;95.10;;;;;;5039578;28;20060;-64
2024/04/03 08:58:25;;;;;;;2.55;1.52;;;12.00;95.20;;;;;;5031824;28;20479;-64
2024/04/03 09:00:51;;;;;;;3.35;1.40;;;12.00;95.30;;;;;;5025620;28;20037;-65
2024/04/03 09:03:17;;;;;;;2.45;1.00;;;12.00;95.30;;;;;;5034433;28;20025;-66
2024/04/03 09:05:43;;;;;;;1.20;1.00;;;12.00;95.30;;;;;;5033669;28;20017;-67
2024/04/03 09:08:09;;;;;;;3.28;1.50;;;12.00;95.20;;;;;;5033231;28;20025;-65
2024/04/03 09:11:00;;;;;;;2.42;1.50;;;12.00;95.20;;;;;;5035516;28;20030;-65
2024/04/03 09:13:24;;;;;;;2.78;1.40;;;12.00;95.30;;;;;;5034437;28;20076;-65
2024/04/03 09:15:53;;;;;;;3.25;1.60;;;11.90;95.40;;;;;;5043753;28;20048;-65
2024/04/03 09:18:19;;;;;;;2.97;1.42;;;11.90;95.50;;;;;;5038354;28;20435;-64
2024/04/03 09:20:47;;;;;;;2.45;1.60;;;12.00;95.50;;;;;;5039323;28;20036;-64
2024/04/03 09:23:12;;;;;;;2.28;1.60;;;12.00;95.60;;;;;;5044341;28;20119;-64
2024/04/03 09:25:38;;;;;;;2.55;1.73;;;11.90;95.60;;;;;;5037382;28;20021;-64
2024/04/03 09:28:09;;;;;;;3.95;1.77;;;11.90;95.60;;;;;;5035211;28;20029;-64
2024/04/03 09:30:39;;;;;;;3.33;1.60;;;11.90;95.70;;;;;;5042926;28;20021;-65
2024/04/03 09:33:05;;;;;;;2.78;1.55;;;11.90;95.70;;;;;;5037535;28;20130;-66
2024/04/03 09:35:35;;;;;;;1.60;1.10;;;11.90;95.80;;;;;;5032157;28;20519;-66
2024/04/03 09:38:02;;;;;;;4.57;1.90;;;11.90;95.80;;;;;;5039896;28;20107;-65
2024/04/03 09:40:29;;;;;;;4.13;1.63;;;11.90;95.90;;;;;;5027059;28;20163;-65
2024/04/03 09:43:05;;;;;;;2.88;1.40;;;11.90;96.00;;;;;;5040378;28;20100;-65
2024/04/03 09:45:32;;;;;;;4.43;1.90;;;11.90;96.10;;;;;;5032174;28;20182;-66
2024/04/03 09:48:08;;;;;;;2.63;1.63;;;11.90;96.10;;;;;;5033218;28;20044;-66
2024/04/03 09:50:45;;;;;;;2.40;1.40;;;11.90;96.10;;;;;;5030402;28;20022;-64
2024/04/03 09:53:20;;;;;;;2.30;1.40;;;12.00;96.10;;;;;;5026161;28;20029;-65
2024/04/03 09:55:47;;;;;;;1.65;1.10;;;12.00;96.10;;;;;;5030666;28;20021;-66
2024/04/03 09:58:14;;;;;;;2.17;1.30;;;12.10;96.00;;;;;;5028231;28;20156;-66
2024/04/03 10:00:49;;;;;;;2.10;1.35;;;12.10;95.90;;;;;;5046935;28;20026;-66
2024/04/03 10:03:34;;;;;;;2.10;1.63;;;12.10;96.00;;;;;;5031044;28;20365;-64
2024/04/03 10:06:12;;;;;;;1.80;1.45;;;12.10;95.90;;;;;;5033364;28;20021;-66
2024/04/03 10:08:40;;;;;;;3.33;1.60;;;12.10;96.00;;;;;;5033621;28;20045;-66
2024/04/03 10:11:13;;;;;;;2.28;1.35;;;12.10;96.00;;;;;;5031118;28;20491;-66
2024/04/03 10:13:40;;;;;;;3.63;1.85;;;12.10;96.10;;;;;;5029313;28;20037;-66
2024/04/03 10:16:10;;;;;;;1.83;1.35;;;12.10;96.10;;;;;;5027413;28;20020;-66
2024/04/03 10:18:40;;;;;;;3.22;1.35;;;12.10;96.20;;;;;;5028207;28;20495;-66
2024/04/03 10:21:12;;;;;;;2.20;1.20;;;12.10;96.20;;;;;;5026881;28;20114;-65
2024/04/03 10:23:41;;;;;;;1.58;1.00;;;12.20;96.20;;;;;;5030169;28;20031;-66
2024/04/03 10:26:11;;;;;;;2.15;1.10;;;12.20;96.10;;;;;;5042288;28;20029;-66
2024/04/03 10:28:38;;;;;;;3.42;1.55;;;12.20;96.00;;;;;;5036230;28;20021;-66
2024/04/03 10:31:03;;;;;;;4.10;2.10;;;12.30;96.00;;;;;;5033645;28;20091;-66
2024/04/03 10:33:29;;;;;;;4.18;1.92;;;12.30;96.10;;;;;;5032990;28;20041;-65
2024/04/03 10:35:55;;;;;;;3.53;1.50;;;12.30;96.00;;;;;;5033306;28;20026;-66
2024/04/03 10:38:21;;;;;;;3.45;1.60;;;12.30;96.00;;;;;;5030710;28;20052;-66
2024/04/03 10:40:47;;;;;;;1.60;1.30;;;12.40;96.00;;;;;;5023350;28;20037;-67
2024/04/03 10:43:13;;;;;;;1.40;1.10;;;12.50;95.90;;;;;;5033732;28;20037;-65
2024/04/03 10:45:39;;;;;;;3.65;1.42;;;12.70;95.70;;;;;;5036875;28;20078;-66
2024/04/03 10:48:11;;;;;;;3.25;1.88;;;12.80;95.50;;;;;;5038681;28;20025;-65
2024/04/03 10:50:40;;;;;;;3.58;1.90;;;12.80;95.40;;;;;;5043829;28;20066;-65
2024/04/03 10:53:09;;;;;;;2.83;1.75;;;12.80;95.40;;;;;;5032909;28;20029;-66
2024/04/03 10:55:36;;;;;;;2.33;1.30;;;12.70;95.40;;;;;;5041026;28;20043;-66
2024/04/03 10:58:03;;;;;;;3.63;1.67;;;12.90;95.40;;;;;;5029706;28;20119;-65
2024/04/03 11:00:40;;;;;;;1.42;1.33;;;12.90;95.30;;;;;;5032981;28;20090;-66
2024/04/03 11:03:07;;;;;;;2.25;1.30;;;13.00;95.30;;;;;;5031601;28;20033;-65
2024/04/03 11:05:34;;;;;;;2.60;1.40;;;13.10;95.10;;;;;;5020827;28;20053;-65
2024/04/03 11:08:01;;;;;;;1.90;1.50;;;13.10;95.00;;;;;;5028835;28;20650;-65
2024/04/03 11:10:27;;;;;;;2.47;1.70;;;13.10;94.90;;;;;;5033197;28;20021;-67
2024/04/03 11:13:15;;;;;;;1.63;1.30;;;13.20;94.80;;;;;;5024984;28;20099;-66
2024/04/03 11:15:41;;;;;;;1.65;1.00;;;13.20;94.80;;;;;;5028268;28;20034;-66
2024/04/03 11:18:07;;;;;;;1.75;1.13;;;13.20;94.70;;;;;;5031398;28;20436;-66
2024/04/03 11:20:34;;;;;;;2.58;1.80;;;13.20;94.70;;;;;;5031206;28;20039;-66
2024/04/03 11:23:01;;;;;;;1.80;1.60;;;13.20;94.60;;;;;;5028919;28;20395;-65
2024/04/03 11:25:31;;;;;;;1.95;1.50;;;13.20;94.60;;;;;;5027406;28;20400;-65
2024/04/03 11:28:00;;;;;;;2.05;1.52;;;13.20;94.50;;;;;;5026487;28;20480;-65
2024/04/03 11:30:26;;;;;;;1.50;1.40;;;13.20;94.50;;;;;;5032060;28;20517;-65
2024/04/03 11:32:51;;;;;;;2.92;2.38;;;13.20;94.60;;;;;;5028471;28;20026;-66
2024/04/03 11:35:17;;;;;;;2.95;1.63;;;13.20;94.50;;;;;;5031456;28;20037;-65
2024/04/03 11:37:42;;;;;;;1.30;1.20;;;13.20;94.70;;;;;;5028014;28;20075;-66
2024/04/03 11:40:08;;;;;;;1.75;1.60;;;13.30;94.50;;;;;;5028495;28;20381;-66
2024/04/03 11:42:36;;;;;;;2.10;1.58;;;13.30;94.40;;;;;;5023145;28;20499;-66
2024/04/03 11:45:04;;;;;;;2.67;1.80;;;13.30;94.40;;;;;;5029447;28;20025;-64
2024/04/03 11:47:31;;;;;;;2.00;1.38;;;13.20;94.40;;;;;;5032466;28;20026;-65
2024/04/03 11:49:57;;;;;;;2.35;1.65;;;13.20;94.40;;;;;;5028726;28;20076;-65
2024/04/03 11:52:23;;;;;;;1.60;1.50;;;13.20;94.40;;;;;;5026085;28;20405;-65
2024/04/03 11:54:48;;;;;;;1.30;1.20;;;13.20;94.40;;;;;;5028695;28;20041;-65
2024/04/03 11:57:14;;;;;;;2.17;1.40;;;13.30;94.50;;;;;;5028204;28;20040;-65
2024/04/03 11:59:39;;;;;;;1.20;1.10;;;13.30;94.40;;;;;;5025381;28;20041;-66
2024/04/03 12:02:08;;;;;;;2.42;1.23;;;13.40;94.40;;;;;;5029561;28;20048;-66
2024/04/03 12:04:34;;;;;;;1.90;1.65;;;13.40;94.40;;;;;;5027648;28;20075;-66
2024/04/03 12:07:00;;;;;;;2.80;1.85;;;13.40;94.30;;;;;;5026633;28;20511;-67
2024/04/03 12:09:25;;;;;;;2.50;2.00;;;13.30;94.20;;;;;;5027757;28;20068;-66
2024/04/03 12:11:51;;;;;;;2.17;1.30;;;13.30;94.30;;;;;;5031737;28;20028;-66
2024/04/03 12:14:17;;;;;;;1.20;1.10;;;13.30;94.40;;;;;;5027834;28;20021;-66
2024/04/03 12:16:43;;;;;;;2.53;1.60;;;13.30;94.50;;;;;;5029899;28;20029;-68
2024/04/03 12:19:29;;;;;;;1.67;1.40;;;13.30;94.50;;;;;;5026112;28;20467;-65
2024/04/03 12:21:55;;;;;;;2.28;1.40;;;13.30;94.50;;;;;;5032078;28;20017;-67
2024/04/03 12:24:21;;;;;;;1.60;1.27;;;13.20;94.60;;;;;;5030978;28;20026;-67
2024/04/03 12:26:47;;;;;;;1.50;1.30;;;13.20;94.70;;;;;;5031517;28;20045;-67
2024/04/03 12:29:13;;;;;;;1.80;1.58;;;13.20;94.70;;;;;;5027726;28;20053;-67
2024/04/03 12:31:40;;;;;;;3.33;1.98;;;13.20;94.70;;;;;;5027773;28;20607;-66
2024/04/03 12:34:07;;;;;;;1.73;1.60;;;13.20;94.70;;;;;;5029215;28;20116;-66
2024/04/03 12:36:32;;;;;;;1.52;1.42;;;13.10;94.90;;;;;;5031861;28;20026;-67
2024/04/03 12:38:58;;;;;;;1.25;1.15;;;13.20;95.00;;;;;;5028456;28;20036;-67
2024/04/03 12:41:24;;;;;;;1.95;1.30;;;13.20;95.10;;;;;;5030925;28;20076;-66
2024/04/03 12:43:49;;;;;;;1.08;1.00;;;13.20;95.00;;;;;;5024628;28;20075;-67
2024/04/03 12:46:15;;;;;;;1.45;1.35;;;13.30;95.00;;;;;;5027652;28;20114;-66
2024/04/03 12:48:41;;;;;;;2.10;1.90;;;13.30;95.00;;;;;;5025810;28;20075;-66